This is the latest recevied weather packets stored in our database for station/object KB1PVH-13. If no packets are shown the sender has not sent any weather packets the latest 10 day(s).
| Time | Temp. | Humidity | Pressure | Rain* | Wind** | Luminosity | Snow |
|---|---|---|---|---|---|---|---|
| 1778074817 | 19.44° C | 68% | 926.2 hPa | 0 mm | - | - | - |
| 1778073617 | 18.89° C | 71% | 926.7 hPa | 0 mm | - | - | - |
| 1778068236 | 16.11° C | 79% | 926.7 hPa | 0 mm | - | - | - |
| 1778064016 | 15° C | 82% | 926.9 hPa | 0 mm | - | - | - |
| 1778062256 | 15° C | 82% | 927.1 hPa | 0 mm | - | - | - |
| 1778055036 | 15° C | 79% | 927.1 hPa | 0 mm | - | - | - |
| 1778052036 | 15.56° C | 77% | 927.3 hPa | 0 mm | - | - | - |
| 1778050816 | 16.11° C | 75% | 926.9 hPa | 0 mm | - | - | - |
| 1778049036 | 16.11° C | 74% | 926.9 hPa | 0 mm | - | - | - |
| 1778047817 | 16.67° C | 72% | 927.1 hPa | 0 mm | - | - | - |
| 1778047216 | 16.67° C | 71% | 927.1 hPa | 0 mm | - | - | - |
| 1778045417 | 17.22° C | 69% | 927.2 hPa | 0 mm | - | - | - |
| 1778043017 | 17.22° C | 67% | 927.5 hPa | 0 mm | - | - | - |
| 1778041837 | 17.22° C | 66% | 927.4 hPa | 0 mm | - | - | - |
| 1778039417 | 17.22° C | 64% | 927.2 hPa | 0 mm | - | - | - |
| 1778038516 | 17.22° C | 64% | 927.1 hPa | 0 mm | - | - | - |
| 1778037916 | 17.22° C | 64% | 927.2 hPa | 0 mm | - | - | - |
| 1778037337 | 17.22° C | 65% | 927.2 hPa | 0 mm | - | - | - |
| 1778030716 | 17.22° C | 62% | 926.9 hPa | 0 mm | - | - | - |
| 1778030136 | 17.22° C | 61% | 927 hPa | 0 mm | - | - | - |
| 1778021737 | 22.22° C | 47% | 925 hPa | 0 mm | - | - | - |
| 1778020516 | 22.78° C | 44% | 924.4 hPa | 0 mm | - | - | - |
| 1778018116 | 23.89° C | 42% | 924.3 hPa | 0 mm | - | - | - |
| 1778017516 | 24.44° C | 42% | 924.3 hPa | 0 mm | - | - | - |
| 1778007956 | 27.78° C | 36% | 924.2 hPa | 0 mm | - | - | - |
* Rain latest hour (hover to see other rain measurements)
** Current wind speed in m/s (hover to see current wind gust speed)